VLG3521 LFPG-GCLP
Flight info
| Callsign | VLG3521 |
|---|---|
| Flight time | N/A |
| Altitude | 37000 |
| Route | AGOPA DCT ARKIP DCT ARMAL DCT ARTAX DCT BEBIX DCT LMG DCT UVELI DCT OSMOB DCT VAVIX DCT BTZ DCT URUNA DCT SSN DCT VRA DCT NEA L14 ADINO DCT ELVAR DCT GAIOS DCT TROIA DCT BEXAL DCT SAMAR |
| Aircraft | A320/M-SDE3FGHIRWY/LB1 |
Departure
| Time | 2026-05-05 11:43 |
|---|---|
| Airport | Charles de Gaulle International Airport (LFPG) |
Arrival
| Time | N/A |
|---|---|
| Airport | Gran Canaria Airport (GCLP) |
| Time | Latitude | Longitude | Altitude | Speed | Heading |
|---|---|---|---|---|---|
| 2026-05-05 11:05 | 49.00566 | 2.56736 | 359 ft | 0 kts | 175° |
| 2026-05-05 11:31 | 49.00567 | 2.56736 | 354 ft | 0 kts | 175° |
| 2026-05-05 11:32 | 49.00572 | 2.56735 | 354 ft | 4 kts | 175° |
| 2026-05-05 11:32 | 49.00599 | 2.56735 | 357 ft | 4 kts | 190° |
| 2026-05-05 11:33 | 49.00622 | 2.56748 | 357 ft | 4 kts | 234° |
| 2026-05-05 11:33 | 49.00628 | 2.56779 | 358 ft | 4 kts | 265° |
| 2026-05-05 11:33 | 49.00628 | 2.56792 | 357 ft | 2 kts | 265° |
| 2026-05-05 11:36 | 49.00628 | 2.56786 | 358 ft | 2 kts | 265° |
| 2026-05-05 11:36 | 49.00627 | 2.56759 | 360 ft | 4 kts | 265° |
| 2026-05-05 11:37 | 49.00624 | 2.56712 | 361 ft | 5 kts | 264° |
| 2026-05-05 11:37 | 49.00619 | 2.56647 | 358 ft | 7 kts | 264° |
| 2026-05-05 11:37 | 49.00613 | 2.56563 | 354 ft | 9 kts | 263° |
| 2026-05-05 11:37 | 49.00606 | 2.56460 | 358 ft | 11 kts | 266° |
| 2026-05-05 11:38 | 49.00601 | 2.56338 | 354 ft | 12 kts | 265° |
| 2026-05-05 11:38 | 49.00593 | 2.56198 | 354 ft | 14 kts | 265° |
| 2026-05-05 11:38 | 49.00575 | 2.56044 | 358 ft | 16 kts | 251° |
| 2026-05-05 11:38 | 49.00566 | 2.55872 | 358 ft | 17 kts | 270° |
| 2026-05-05 11:39 | 49.00561 | 2.55724 | 361 ft | 9 kts | 264° |
| 2026-05-05 11:39 | 49.00555 | 2.55613 | 354 ft | 11 kts | 265° |
| 2026-05-05 11:39 | 49.00551 | 2.55484 | 359 ft | 13 kts | 269° |
| 2026-05-05 11:39 | 49.00511 | 2.55360 | 357 ft | 14 kts | 218° |
| 2026-05-05 11:40 | 49.00413 | 2.55345 | 356 ft | 15 kts | 166° |
| 2026-05-05 11:40 | 49.00305 | 2.55393 | 361 ft | 17 kts | 164° |
| 2026-05-05 11:40 | 49.00186 | 2.55444 | 354 ft | 19 kts | 164° |
| 2026-05-05 11:40 | 49.00056 | 2.55501 | 357 ft | 20 kts | 165° |
| 2026-05-05 11:41 | 48.99925 | 2.55565 | 356 ft | 20 kts | 150° |
| 2026-05-05 11:41 | 48.99836 | 2.55722 | 357 ft | 17 kts | 113° |
| 2026-05-05 11:41 | 48.99738 | 2.55805 | 357 ft | 18 kts | 171° |
| 2026-05-05 11:41 | 48.99618 | 2.55850 | 357 ft | 17 kts | 127° |
| 2026-05-05 11:42 | 48.99611 | 2.56034 | 354 ft | 21 kts | 85° |
| 2026-05-05 11:42 | 48.99636 | 2.56468 | 355 ft | 72 kts | 84° |
| 2026-05-05 11:42 | 48.99690 | 2.57517 | 354 ft | 126 kts | 85° |
| 2026-05-05 11:42 | 48.99772 | 2.59061 | 363 ft | 165 kts | 85° |
| 2026-05-05 11:43 | 48.99850 | 2.60861 | 894 ft | 171 kts | 83° |
| 2026-05-05 11:43 | 48.99928 | 2.62673 | 1625 ft | 173 kts | 83° |
| 2026-05-05 11:43 | 49.00020 | 2.64650 | 1861 ft | 200 kts | 85° |
| 2026-05-05 11:43 | 49.00114 | 2.66921 | 2070 ft | 230 kts | 84° |
| 2026-05-05 11:44 | 49.00243 | 2.69453 | 2641 ft | 245 kts | 84° |
| 2026-05-05 11:44 | 49.00398 | 2.72031 | 3477 ft | 249 kts | 84° |
| 2026-05-05 11:44 | 49.00558 | 2.74677 | 4329 ft | 253 kts | 84° |
| 2026-05-05 11:44 | 49.00706 | 2.77365 | 5219 ft | 257 kts | 88° |
| 2026-05-05 11:45 | 49.00568 | 2.80121 | 6224 ft | 263 kts | 96° |
| 2026-05-05 11:45 | 49.00299 | 2.82893 | 7207 ft | 266 kts | 98° |
| 2026-05-05 11:45 | 48.99988 | 2.85687 | 8121 ft | 269 kts | 98° |
| 2026-05-05 11:45 | 48.99663 | 2.88518 | 8885 ft | 274 kts | 98° |
| 2026-05-05 11:46 | 48.99336 | 2.91397 | 9675 ft | 277 kts | 98° |
| 2026-05-05 11:46 | 48.99017 | 2.94289 | 10234 ft | 288 kts | 98° |
| 2026-05-05 11:46 | 48.98568 | 2.97385 | 10455 ft | 310 kts | 110° |
| 2026-05-05 11:46 | 48.97416 | 3.00203 | 10979 ft | 321 kts | 132° |
| 2026-05-05 11:47 | 48.95599 | 3.02231 | 11630 ft | 329 kts | 154° |
| 2026-05-05 11:47 | 48.93370 | 3.03068 | 12307 ft | 336 kts | 176° |
| 2026-05-05 11:47 | 48.91047 | 3.02485 | 12967 ft | 345 kts | 200° |
| 2026-05-05 11:47 | 48.89029 | 3.00459 | 13637 ft | 353 kts | 225° |
| 2026-05-05 11:48 | 48.87196 | 2.93545 | 14947 ft | 365 kts | 260° |
| 2026-05-05 11:48 | 48.86801 | 2.89759 | 15730 ft | 368 kts | 261° |
| 2026-05-05 11:48 | 48.86410 | 2.85896 | 16375 ft | 372 kts | 260° |
| 2026-05-05 11:49 | 48.86016 | 2.81996 | 17011 ft | 375 kts | 259° |
| 2026-05-05 11:49 | 48.85612 | 2.78065 | 17597 ft | 378 kts | 259° |
| 2026-05-05 11:49 | 48.85196 | 2.74093 | 18158 ft | 381 kts | 259° |
| 2026-05-05 11:49 | 48.84777 | 2.70109 | 18666 ft | 383 kts | 259° |
| 2026-05-05 11:50 | 48.84334 | 2.66108 | 19194 ft | 385 kts | 255° |
| 2026-05-05 11:50 | 48.83529 | 2.62239 | 19730 ft | 384 kts | 244° |
| 2026-05-05 11:50 | 48.82266 | 2.58692 | 20269 ft | 381 kts | 233° |
| 2026-05-05 11:50 | 48.80734 | 2.55414 | 20792 ft | 382 kts | 232° |
| 2026-05-05 11:51 | 48.79201 | 2.52161 | 21281 ft | 383 kts | 232° |
| 2026-05-05 11:51 | 48.77646 | 2.48862 | 21753 ft | 385 kts | 232° |
| 2026-05-05 11:51 | 48.76082 | 2.45542 | 22262 ft | 387 kts | 232° |
| 2026-05-05 11:51 | 48.74511 | 2.42233 | 22810 ft | 389 kts | 230° |
| 2026-05-05 11:52 | 48.72677 | 2.39206 | 23368 ft | 389 kts | 220° |
| 2026-05-05 11:52 | 48.70529 | 2.36730 | 23790 ft | 388 kts | 210° |
| 2026-05-05 11:52 | 48.68988 | 2.35336 | 24057 ft | 390 kts | 209° |
| 2026-05-05 11:52 | 48.66651 | 2.33236 | 24449 ft | 392 kts | 209° |
| 2026-05-05 11:53 | 48.64300 | 2.31124 | 24825 ft | 394 kts | 209° |
| 2026-05-05 11:53 | 48.61159 | 2.28308 | 25326 ft | 397 kts | 208° |
| 2026-05-05 11:53 | 48.59549 | 2.26861 | 25566 ft | 399 kts | 209° |
| 2026-05-05 11:53 | 48.57187 | 2.24740 | 25926 ft | 401 kts | 208° |
| 2026-05-05 11:54 | 48.54776 | 2.22579 | 26289 ft | 403 kts | 208° |
| 2026-05-05 11:54 | 48.52351 | 2.20410 | 26661 ft | 406 kts | 208° |
| 2026-05-05 11:54 | 48.49909 | 2.18225 | 27048 ft | 408 kts | 208° |
| 2026-05-05 11:54 | 48.47451 | 2.16045 | 27429 ft | 411 kts | 208° |
| 2026-05-05 11:55 | 48.44970 | 2.13866 | 27762 ft | 414 kts | 208° |
| 2026-05-05 11:55 | 48.42465 | 2.11684 | 28105 ft | 416 kts | 208° |
| 2026-05-05 11:55 | 48.39976 | 2.09520 | 28408 ft | 420 kts | 207° |
| 2026-05-05 11:55 | 48.37431 | 2.07305 | 28753 ft | 424 kts | 208° |
| 2026-05-05 11:56 | 48.34864 | 2.05064 | 29175 ft | 427 kts | 208° |
| 2026-05-05 11:56 | 48.32245 | 2.02933 | 29530 ft | 428 kts | 201° |
| 2026-05-05 11:56 | 48.29437 | 2.01418 | 29897 ft | 427 kts | 192° |
| 2026-05-05 11:56 | 48.26518 | 2.00623 | 30184 ft | 426 kts | 183° |
| 2026-05-05 11:57 | 48.23559 | 2.00519 | 30490 ft | 426 kts | 176° |
| 2026-05-05 11:57 | 48.20594 | 2.00617 | 30807 ft | 427 kts | 176° |
| 2026-05-05 11:57 | 48.17615 | 2.00708 | 31060 ft | 430 kts | 176° |
| 2026-05-05 11:57 | 48.14615 | 2.00795 | 31337 ft | 432 kts | 176° |
| 2026-05-05 11:58 | 48.11606 | 2.00880 | 31638 ft | 433 kts | 176° |
| 2026-05-05 11:58 | 48.08591 | 2.00967 | 31950 ft | 434 kts | 176° |
| 2026-05-05 11:58 | 48.05585 | 2.01087 | 32531 ft | 428 kts | 176° |
| 2026-05-05 11:58 | 48.02632 | 2.01254 | 33218 ft | 421 kts | 176° |
| 2026-05-05 11:59 | 47.99720 | 2.01446 | 33824 ft | 417 kts | 176° |
| 2026-05-05 11:59 | 47.96834 | 2.01641 | 34232 ft | 415 kts | 176° |
| 2026-05-05 11:59 | 47.93947 | 2.01829 | 34529 ft | 415 kts | 176° |
| 2026-05-05 11:59 | 47.91057 | 2.02010 | 34793 ft | 416 kts | 176° |
| 2026-05-05 12:00 | 47.88196 | 2.02180 | 35048 ft | 417 kts | 176° |
| 2026-05-05 12:00 | 47.85294 | 2.02348 | 35286 ft | 418 kts | 177° |
| 2026-05-05 12:00 | 47.82386 | 2.02514 | 35546 ft | 418 kts | 177° |
| 2026-05-05 12:00 | 47.79476 | 2.02683 | 35780 ft | 419 kts | 177° |
| 2026-05-05 12:01 | 47.76560 | 2.02854 | 36038 ft | 419 kts | 177° |
| 2026-05-05 12:01 | 47.73644 | 2.03027 | 36275 ft | 420 kts | 177° |
| 2026-05-05 12:01 | 47.70719 | 2.03202 | 36518 ft | 421 kts | 178° |
| 2026-05-05 12:01 | 47.67793 | 2.03377 | 36750 ft | 422 kts | 178° |
| 2026-05-05 12:02 | 47.61874 | 2.03726 | 36822 ft | 430 kts | 178° |
| 2026-05-05 12:02 | 47.55874 | 2.04064 | 36828 ft | 433 kts | 178° |
| 2026-05-05 12:03 | 47.49847 | 2.04404 | 36829 ft | 433 kts | 178° |
| 2026-05-05 12:03 | 47.43817 | 2.04751 | 36840 ft | 433 kts | 178° |
| 2026-05-05 12:04 | 47.37823 | 2.05097 | 36842 ft | 434 kts | 178° |
| 2026-05-05 12:04 | 47.31814 | 2.04737 | 36853 ft | 433 kts | 190° |
| 2026-05-05 12:05 | 47.25870 | 2.03207 | 36860 ft | 434 kts | 189° |
| 2026-05-05 12:05 | 47.19918 | 2.01709 | 36866 ft | 434 kts | 189° |
| 2026-05-05 12:06 | 47.13968 | 2.00215 | 36869 ft | 433 kts | 189° |
| 2026-05-05 12:06 | 47.08027 | 1.98720 | 36883 ft | 433 kts | 190° |
| 2026-05-05 12:07 | 47.02091 | 1.97223 | 36881 ft | 433 kts | 190° |
| 2026-05-05 12:07 | 46.96199 | 1.95738 | 36876 ft | 432 kts | 190° |
| 2026-05-05 12:08 | 46.90260 | 1.94250 | 36894 ft | 432 kts | 190° |
| 2026-05-05 12:08 | 46.84327 | 1.92770 | 36885 ft | 433 kts | 190° |
| 2026-05-05 12:09 | 46.78392 | 1.91300 | 36899 ft | 433 kts | 190° |
| 2026-05-05 12:09 | 46.72455 | 1.89825 | 36902 ft | 433 kts | 190° |
| 2026-05-05 12:10 | 46.66511 | 1.88354 | 36904 ft | 433 kts | 190° |
| 2026-05-05 12:10 | 46.60558 | 1.86885 | 36899 ft | 433 kts | 190° |
| 2026-05-05 12:11 | 46.54653 | 1.85429 | 36904 ft | 433 kts | 190° |
| 2026-05-05 12:11 | 46.48706 | 1.83963 | 36910 ft | 433 kts | 190° |
| 2026-05-05 12:12 | 46.42759 | 1.82495 | 36914 ft | 433 kts | 190° |
| 2026-05-05 12:12 | 46.36811 | 1.81028 | 36913 ft | 433 kts | 190° |
| 2026-05-05 12:13 | 46.30905 | 1.79590 | 36913 ft | 433 kts | 190° |
| 2026-05-05 12:13 | 46.25223 | 1.76885 | 36913 ft | 431 kts | 209° |
| 2026-05-05 12:14 | 46.20441 | 1.71682 | 36915 ft | 431 kts | 220° |
| 2026-05-05 12:14 | 46.15909 | 1.66013 | 36906 ft | 432 kts | 220° |
| 2026-05-05 12:15 | 46.11355 | 1.60351 | 36918 ft | 432 kts | 220° |
| 2026-05-05 12:15 | 46.06798 | 1.54691 | 36933 ft | 432 kts | 220° |
| 2026-05-05 12:16 | 46.02269 | 1.49074 | 36924 ft | 432 kts | 220° |
| 2026-05-05 12:16 | 45.97702 | 1.43428 | 36925 ft | 432 kts | 220° |
| 2026-05-05 12:17 | 45.93828 | 1.36816 | 36932 ft | 434 kts | 239° |
| 2026-05-05 12:17 | 45.91081 | 1.29150 | 36926 ft | 434 kts | 242° |
| 2026-05-05 12:18 | 45.88327 | 1.21409 | 36932 ft | 434 kts | 242° |
| 2026-05-05 12:18 | 45.85565 | 1.13679 | 36935 ft | 435 kts | 242° |
| 2026-05-05 12:19 | 45.82787 | 1.06014 | 36932 ft | 435 kts | 238° |
| 2026-05-05 12:19 | 45.78956 | 0.99386 | 36927 ft | 432 kts | 219° |
| 2026-05-05 12:20 | 45.74334 | 0.93865 | 36926 ft | 432 kts | 219° |
| 2026-05-05 12:20 | 45.69711 | 0.88341 | 36925 ft | 432 kts | 219° |
| 2026-05-05 12:21 | 45.65093 | 0.82823 | 36938 ft | 432 kts | 219° |
| 2026-05-05 12:21 | 45.60504 | 0.77351 | 36950 ft | 432 kts | 219° |
| 2026-05-05 12:22 | 45.55864 | 0.71846 | 36942 ft | 433 kts | 219° |
| 2026-05-05 12:22 | 45.51226 | 0.66359 | 36949 ft | 433 kts | 219° |
| 2026-05-05 12:23 | 45.46584 | 0.60868 | 36954 ft | 433 kts | 219° |
| 2026-05-05 12:23 | 45.41961 | 0.55411 | 36959 ft | 433 kts | 219° |
| 2026-05-05 12:24 | 45.37321 | 0.49940 | 36958 ft | 433 kts | 219° |
| 2026-05-05 12:24 | 45.32680 | 0.44483 | 36966 ft | 433 kts | 219° |
| 2026-05-05 12:25 | 45.28034 | 0.39031 | 36968 ft | 433 kts | 219° |
| 2026-05-05 12:25 | 45.23380 | 0.33586 | 36968 ft | 433 kts | 219° |
| 2026-05-05 12:26 | 45.18752 | 0.28182 | 36960 ft | 433 kts | 219° |
| 2026-05-05 12:26 | 45.14092 | 0.22754 | 36976 ft | 433 kts | 219° |
| 2026-05-05 12:27 | 45.09434 | 0.17338 | 36981 ft | 433 kts | 219° |
| 2026-05-05 12:27 | 45.04798 | 0.11961 | 36980 ft | 433 kts | 219° |
| 2026-05-05 12:28 | 45.00129 | 0.06557 | 36981 ft | 433 kts | 219° |
| 2026-05-05 12:28 | 44.95474 | 0.01183 | 36991 ft | 432 kts | 219° |
| 2026-05-05 12:29 | 44.90811 | -0.04186 | 36984 ft | 431 kts | 219° |
| 2026-05-05 12:29 | 44.86190 | -0.09499 | 36985 ft | 431 kts | 219° |
| 2026-05-05 12:30 | 44.81529 | -0.14846 | 36979 ft | 431 kts | 219° |
| 2026-05-05 12:30 | 44.76867 | -0.20175 | 36989 ft | 431 kts | 219° |
| 2026-05-05 12:31 | 44.72202 | -0.25507 | 36986 ft | 431 kts | 219° |
| 2026-05-05 12:31 | 44.67542 | -0.30825 | 36986 ft | 431 kts | 219° |
| 2026-05-05 12:32 | 44.62856 | -0.36002 | 36980 ft | 431 kts | 216° |
| 2026-05-05 12:32 | 44.57916 | -0.40793 | 36983 ft | 431 kts | 214° |
| 2026-05-05 12:33 | 44.52906 | -0.45429 | 36989 ft | 431 kts | 214° |
| 2026-05-05 12:33 | 44.47938 | -0.50107 | 36991 ft | 430 kts | 215° |
| 2026-05-05 12:34 | 44.42999 | -0.54843 | 36988 ft | 430 kts | 215° |
| 2026-05-05 12:34 | 44.38099 | -0.59558 | 36988 ft | 430 kts | 215° |
| 2026-05-05 12:35 | 44.33166 | -0.64278 | 37000 ft | 429 kts | 215° |
| 2026-05-05 12:35 | 44.28225 | -0.68972 | 36989 ft | 429 kts | 215° |
| 2026-05-05 12:36 | 44.23341 | -0.73795 | 36992 ft | 429 kts | 217° |
| 2026-05-05 12:36 | 44.18590 | -0.78732 | 36997 ft | 429 kts | 218° |
| 2026-05-05 12:37 | 44.13795 | -0.83697 | 36997 ft | 429 kts | 217° |
| 2026-05-05 12:37 | 44.08968 | -0.88602 | 36989 ft | 429 kts | 217° |
| 2026-05-05 12:38 | 44.04161 | -0.93460 | 37007 ft | 429 kts | 217° |
| 2026-05-05 12:38 | 43.99329 | -0.98348 | 37013 ft | 429 kts | 217° |
| 2026-05-05 12:39 | 43.94496 | -1.03225 | 37021 ft | 429 kts | 217° |
| 2026-05-05 12:39 | 43.89662 | -1.08095 | 37027 ft | 428 kts | 217° |
| 2026-05-05 12:40 | 43.84869 | -1.12917 | 37023 ft | 428 kts | 217° |
| 2026-05-05 12:40 | 43.80043 | -1.17766 | 37024 ft | 428 kts | 217° |
| 2026-05-05 12:41 | 43.76030 | -1.21793 | 37020 ft | 428 kts | 217° |
| 2026-05-05 12:41 | 43.70400 | -1.27425 | 37023 ft | 428 kts | 217° |
| 2026-05-05 12:42 | 43.66375 | -1.31441 | 37030 ft | 428 kts | 217° |
| 2026-05-05 12:42 | 43.61534 | -1.36264 | 37020 ft | 428 kts | 217° |
| 2026-05-05 12:43 | 43.56695 | -1.41084 | 37045 ft | 428 kts | 217° |
| 2026-05-05 12:43 | 43.51892 | -1.45851 | 37047 ft | 428 kts | 217° |
| 2026-05-05 12:44 | 43.47183 | -1.50845 | 37042 ft | 426 kts | 226° |
| 2026-05-05 12:44 | 43.43603 | -1.57315 | 37052 ft | 425 kts | 237° |
| 2026-05-05 12:45 | 43.40323 | -1.64109 | 37034 ft | 426 kts | 236° |
| 2026-05-05 12:45 | 43.37034 | -1.70878 | 37042 ft | 426 kts | 236° |
| 2026-05-05 12:46 | 43.33735 | -1.77630 | 37047 ft | 426 kts | 236° |
| 2026-05-05 12:46 | 43.30429 | -1.84367 | 37048 ft | 425 kts | 235° |
| 2026-05-05 12:47 | 43.26939 | -1.90867 | 37052 ft | 425 kts | 233° |
| 2026-05-05 12:47 | 43.23304 | -1.97292 | 37050 ft | 426 kts | 233° |
| 2026-05-05 12:48 | 43.19681 | -2.03724 | 37045 ft | 426 kts | 233° |
| 2026-05-05 12:48 | 43.16083 | -2.10208 | 37040 ft | 426 kts | 233° |
| 2026-05-05 12:49 | 43.12503 | -2.16688 | 37036 ft | 426 kts | 233° |
| 2026-05-05 12:49 | 43.08935 | -2.23106 | 37039 ft | 426 kts | 233° |
| 2026-05-05 12:50 | 43.05334 | -2.29559 | 37042 ft | 426 kts | 233° |
| 2026-05-05 12:50 | 43.01727 | -2.36010 | 37032 ft | 427 kts | 233° |
| 2026-05-05 12:51 | 42.98116 | -2.42455 | 37022 ft | 427 kts | 233° |
| 2026-05-05 12:51 | 42.94527 | -2.48846 | 37032 ft | 426 kts | 233° |
| 2026-05-05 12:52 | 42.90905 | -2.55264 | 37034 ft | 426 kts | 233° |
| 2026-05-05 12:52 | 42.87279 | -2.61679 | 37020 ft | 426 kts | 233° |
| 2026-05-05 12:53 | 42.83670 | -2.68080 | 37027 ft | 426 kts | 233° |
| 2026-05-05 12:53 | 42.80043 | -2.74477 | 37015 ft | 426 kts | 233° |
| 2026-05-05 12:54 | 42.74609 | -2.84036 | 37030 ft | 427 kts | 233° |
| 2026-05-05 12:55 | 42.70974 | -2.90461 | 37022 ft | 427 kts | 234° |
| 2026-05-05 12:55 | 42.67389 | -2.96922 | 37024 ft | 427 kts | 234° |
| 2026-05-05 12:56 | 42.63846 | -3.03343 | 37023 ft | 427 kts | 234° |
| 2026-05-05 12:56 | 42.60254 | -3.09794 | 37011 ft | 428 kts | 234° |
| 2026-05-05 12:57 | 42.56649 | -3.16231 | 36990 ft | 428 kts | 234° |
| 2026-05-05 12:57 | 42.53038 | -3.22664 | 37009 ft | 428 kts | 234° |
| 2026-05-05 12:58 | 42.49421 | -3.29092 | 37012 ft | 428 kts | 234° |
| 2026-05-05 12:58 | 42.45829 | -3.35470 | 37014 ft | 428 kts | 234° |
| 2026-05-05 12:59 | 42.42214 | -3.41879 | 37014 ft | 428 kts | 234° |
| 2026-05-05 12:59 | 42.38591 | -3.48279 | 37005 ft | 428 kts | 234° |
| 2026-05-05 13:00 | 42.33149 | -3.57883 | 36984 ft | 429 kts | 234° |
| 2026-05-05 13:01 | 42.25882 | -3.70625 | 37006 ft | 428 kts | 234° |
| 2026-05-05 13:01 | 42.22236 | -3.77017 | 37019 ft | 429 kts | 234° |
| 2026-05-05 13:02 | 42.18620 | -3.83347 | 37028 ft | 429 kts | 234° |
| 2026-05-05 13:02 | 42.14961 | -3.89725 | 37016 ft | 430 kts | 234° |
| 2026-05-05 13:03 | 42.11289 | -3.96122 | 37000 ft | 430 kts | 234° |
| 2026-05-05 13:03 | 42.07642 | -4.02460 | 37018 ft | 430 kts | 234° |
| 2026-05-05 13:04 | 42.03962 | -4.08811 | 37022 ft | 430 kts | 234° |
| 2026-05-05 13:04 | 41.99711 | -4.14505 | 37025 ft | 433 kts | 224° |
| 2026-05-05 13:05 | 41.95165 | -4.19841 | 37026 ft | 433 kts | 224° |
| 2026-05-05 13:05 | 41.90641 | -4.25128 | 37012 ft | 433 kts | 224° |
| 2026-05-05 13:06 | 41.86090 | -4.30445 | 37029 ft | 433 kts | 224° |
| 2026-05-05 13:06 | 41.81542 | -4.35746 | 37034 ft | 432 kts | 224° |
| 2026-05-05 13:07 | 41.76996 | -4.41017 | 37035 ft | 432 kts | 224° |
| 2026-05-05 13:07 | 41.72459 | -4.46278 | 37035 ft | 431 kts | 224° |
| 2026-05-05 13:08 | 41.67939 | -4.51515 | 37011 ft | 431 kts | 224° |
| 2026-05-05 13:08 | 41.63409 | -4.56760 | 37028 ft | 430 kts | 224° |
| 2026-05-05 13:09 | 41.58877 | -4.61996 | 37022 ft | 430 kts | 224° |
| 2026-05-05 13:09 | 41.54342 | -4.67222 | 37022 ft | 430 kts | 224° |
| 2026-05-05 13:10 | 41.49830 | -4.72418 | 37032 ft | 431 kts | 224° |
| 2026-05-05 13:10 | 41.45277 | -4.77647 | 37006 ft | 431 kts | 224° |
| 2026-05-05 13:11 | 41.40725 | -4.82863 | 37016 ft | 430 kts | 224° |
| 2026-05-05 13:11 | 41.36206 | -4.88022 | 37020 ft | 430 kts | 224° |
| 2026-05-05 13:12 | 41.31672 | -4.93193 | 37021 ft | 430 kts | 224° |
| 2026-05-05 13:12 | 41.27123 | -4.98378 | 37006 ft | 430 kts | 224° |
| 2026-05-05 13:13 | 41.22574 | -5.03546 | 36977 ft | 430 kts | 224° |
| 2026-05-05 13:13 | 41.18022 | -5.08706 | 36997 ft | 430 kts | 224° |
| 2026-05-05 13:14 | 41.13467 | -5.13865 | 37012 ft | 429 kts | 224° |
| 2026-05-05 13:14 | 41.08943 | -5.18981 | 37028 ft | 429 kts | 224° |
| 2026-05-05 13:15 | 41.04399 | -5.24101 | 37039 ft | 429 kts | 224° |
| 2026-05-05 13:15 | 40.99840 | -5.29236 | 37034 ft | 429 kts | 225° |
| 2026-05-05 13:16 | 40.95312 | -5.34322 | 37062 ft | 429 kts | 225° |
| 2026-05-05 13:16 | 40.90766 | -5.39418 | 37064 ft | 429 kts | 225° |
| 2026-05-05 13:17 | 40.86208 | -5.44524 | 37067 ft | 429 kts | 225° |
| 2026-05-05 13:17 | 40.81648 | -5.49622 | 37066 ft | 429 kts | 225° |
| 2026-05-05 13:18 | 40.77100 | -5.54689 | 36984 ft | 429 kts | 225° |
| 2026-05-05 13:18 | 40.72541 | -5.59748 | 37019 ft | 427 kts | 225° |
| 2026-05-05 13:19 | 40.67995 | -5.64802 | 37027 ft | 426 kts | 225° |
| 2026-05-05 13:19 | 40.63460 | -5.69834 | 37028 ft | 426 kts | 225° |
| 2026-05-05 13:20 | 40.58960 | -5.74817 | 37020 ft | 425 kts | 225° |
| 2026-05-05 13:20 | 40.54422 | -5.79833 | 37025 ft | 425 kts | 225° |
| 2026-05-05 13:21 | 40.49887 | -5.84826 | 37024 ft | 425 kts | 225° |
| 2026-05-05 13:21 | 40.45362 | -5.89803 | 37024 ft | 425 kts | 225° |
| 2026-05-05 13:22 | 40.40831 | -5.94778 | 37022 ft | 425 kts | 225° |
| 2026-05-05 13:22 | 40.36307 | -5.99746 | 37023 ft | 425 kts | 225° |
| 2026-05-05 13:23 | 40.31773 | -6.04722 | 37022 ft | 425 kts | 225° |
| 2026-05-05 13:23 | 40.27252 | -6.09671 | 37000 ft | 423 kts | 226° |
| 2026-05-05 13:24 | 40.22728 | -6.14607 | 37024 ft | 422 kts | 226° |
| 2026-05-05 13:24 | 40.18213 | -6.19525 | 37025 ft | 422 kts | 226° |
| 2026-05-05 13:25 | 40.13729 | -6.24399 | 37021 ft | 421 kts | 226° |
| 2026-05-05 13:25 | 40.09215 | -6.29284 | 37022 ft | 421 kts | 226° |
| 2026-05-05 13:26 | 40.04704 | -6.34169 | 37010 ft | 420 kts | 226° |
| 2026-05-05 13:26 | 40.00216 | -6.39036 | 37029 ft | 419 kts | 226° |
| 2026-05-05 13:27 | 39.96485 | -6.43072 | 37035 ft | 419 kts | 226° |
| 2026-05-05 13:27 | 39.91270 | -6.48693 | 37027 ft | 419 kts | 226° |
| 2026-05-05 13:28 | 39.86777 | -6.53521 | 37028 ft | 418 kts | 226° |
| 2026-05-05 13:28 | 39.83013 | -6.57567 | 37016 ft | 418 kts | 225° |
| 2026-05-05 13:29 | 39.78593 | -6.62408 | 37029 ft | 414 kts | 231° |
| 2026-05-05 13:30 | 39.70518 | -6.73368 | 37038 ft | 412 kts | 232° |
| 2026-05-05 13:30 | 39.66576 | -6.78775 | 37040 ft | 412 kts | 232° |
| 2026-05-05 13:31 | 39.62628 | -6.84151 | 37039 ft | 412 kts | 232° |
| 2026-05-05 13:31 | 39.58671 | -6.89511 | 37021 ft | 411 kts | 231° |
| 2026-05-05 13:32 | 39.54722 | -6.94856 | 37040 ft | 410 kts | 231° |
| 2026-05-05 13:32 | 39.50778 | -7.00190 | 37049 ft | 409 kts | 231° |
| 2026-05-05 13:33 | 39.46839 | -7.05507 | 37047 ft | 409 kts | 231° |
| 2026-05-05 13:33 | 39.42900 | -7.10819 | 37054 ft | 409 kts | 231° |
| 2026-05-05 13:34 | 39.38954 | -7.16123 | 37049 ft | 409 kts | 231° |
| 2026-05-05 13:34 | 39.34999 | -7.21414 | 37015 ft | 409 kts | 231° |
| 2026-05-05 13:35 | 39.31052 | -7.26694 | 37044 ft | 408 kts | 231° |
| 2026-05-05 13:35 | 39.27140 | -7.31940 | 37058 ft | 408 kts | 231° |
| 2026-05-05 13:36 | 39.23204 | -7.37204 | 37062 ft | 407 kts | 231° |
| 2026-05-05 13:36 | 39.19261 | -7.42461 | 37063 ft | 407 kts | 231° |
| 2026-05-05 13:37 | 39.15311 | -7.47714 | 37067 ft | 407 kts | 231° |
| 2026-05-05 13:37 | 39.11366 | -7.52952 | 37067 ft | 407 kts | 231° |
| 2026-05-05 13:38 | 39.07426 | -7.58175 | 37060 ft | 406 kts | 231° |
| 2026-05-05 13:38 | 39.03494 | -7.63387 | 37061 ft | 405 kts | 231° |
| 2026-05-05 13:39 | 38.99562 | -7.68585 | 37066 ft | 405 kts | 231° |
| 2026-05-05 13:39 | 38.95659 | -7.73731 | 37070 ft | 404 kts | 231° |
| 2026-05-05 13:40 | 38.91724 | -7.78904 | 37069 ft | 404 kts | 230° |
| 2026-05-05 13:40 | 38.87795 | -7.84077 | 37068 ft | 404 kts | 231° |
| 2026-05-05 13:41 | 38.83876 | -7.89228 | 37051 ft | 404 kts | 230° |
| 2026-05-05 13:41 | 38.79942 | -7.94377 | 37060 ft | 403 kts | 230° |
| 2026-05-05 13:42 | 38.76019 | -7.99512 | 37066 ft | 403 kts | 230° |
| 2026-05-05 13:42 | 38.72097 | -8.04640 | 37071 ft | 403 kts | 230° |
| 2026-05-05 13:43 | 38.68195 | -8.09727 | 37073 ft | 402 kts | 230° |
| 2026-05-05 13:43 | 38.64268 | -8.14838 | 37072 ft | 403 kts | 230° |
| 2026-05-05 13:44 | 38.60342 | -8.19945 | 37044 ft | 403 kts | 230° |
| 2026-05-05 13:44 | 38.56414 | -8.25039 | 37066 ft | 402 kts | 230° |
| 2026-05-05 13:45 | 38.52489 | -8.30120 | 37072 ft | 401 kts | 230° |
| 2026-05-05 13:45 | 38.48553 | -8.35199 | 37088 ft | 401 kts | 230° |
| 2026-05-05 13:46 | 38.44651 | -8.40239 | 37075 ft | 402 kts | 230° |
| 2026-05-05 13:46 | 38.40729 | -8.45321 | 37078 ft | 402 kts | 230° |
| 2026-05-05 13:47 | 38.36798 | -8.50396 | 37094 ft | 402 kts | 230° |
| 2026-05-05 13:47 | 38.32853 | -8.55455 | 37077 ft | 402 kts | 229° |
| 2026-05-05 13:48 | 38.28900 | -8.60505 | 37094 ft | 402 kts | 229° |
| 2026-05-05 13:48 | 38.24963 | -8.65549 | 37108 ft | 402 kts | 229° |
| 2026-05-05 13:49 | 38.21021 | -8.70593 | 37111 ft | 401 kts | 229° |
| 2026-05-05 13:49 | 38.17079 | -8.75623 | 37102 ft | 402 kts | 229° |
| 2026-05-05 13:50 | 38.13131 | -8.80653 | 37115 ft | 402 kts | 229° |
| 2026-05-05 13:50 | 38.09177 | -8.85682 | 37119 ft | 403 kts | 229° |
| 2026-05-05 13:51 | 38.05223 | -8.90709 | 37119 ft | 403 kts | 229° |
| 2026-05-05 13:51 | 38.01286 | -8.95704 | 37134 ft | 403 kts | 229° |
| 2026-05-05 13:52 | 37.97323 | -9.00726 | 37131 ft | 402 kts | 229° |
| 2026-05-05 13:52 | 37.93357 | -9.05741 | 37133 ft | 402 kts | 229° |
| 2026-05-05 13:53 | 37.89390 | -9.10750 | 37133 ft | 402 kts | 229° |
| 2026-05-05 13:53 | 37.85418 | -9.15757 | 37129 ft | 403 kts | 229° |
| 2026-05-05 13:54 | 37.81441 | -9.20755 | 37114 ft | 403 kts | 229° |
| 2026-05-05 13:54 | 37.77456 | -9.25752 | 37128 ft | 403 kts | 229° |
| 2026-05-05 13:55 | 37.73500 | -9.30717 | 37132 ft | 403 kts | 229° |
| 2026-05-05 13:55 | 37.69505 | -9.35718 | 37135 ft | 403 kts | 229° |
| 2026-05-05 13:56 | 37.65516 | -9.40703 | 37138 ft | 403 kts | 229° |
| 2026-05-05 13:56 | 37.61548 | -9.45652 | 37139 ft | 404 kts | 229° |
| 2026-05-05 13:57 | 37.57551 | -9.50643 | 37134 ft | 404 kts | 229° |
| 2026-05-05 13:57 | 37.53540 | -9.55637 | 37120 ft | 405 kts | 228° |
| 2026-05-05 13:58 | 37.49522 | -9.60622 | 37128 ft | 406 kts | 228° |
| 2026-05-05 13:58 | 37.45497 | -9.65609 | 37136 ft | 406 kts | 228° |
| 2026-05-05 13:59 | 37.39460 | -9.73069 | 37154 ft | 407 kts | 228° |
| 2026-05-05 14:00 | 37.34056 | -9.79738 | 37159 ft | 407 kts | 228° |
| 2026-05-05 14:00 | 37.29366 | -9.85536 | 37142 ft | 407 kts | 227° |
| 2026-05-05 14:01 | 37.25312 | -9.90525 | 37145 ft | 408 kts | 227° |
| 2026-05-05 14:01 | 37.21247 | -9.95515 | 37151 ft | 409 kts | 227° |
| 2026-05-05 14:02 | 37.17200 | -10.00481 | 37161 ft | 409 kts | 227° |
| 2026-05-05 14:02 | 37.13122 | -10.05472 | 37163 ft | 410 kts | 227° |
| 2026-05-05 14:03 | 37.09036 | -10.10462 | 37162 ft | 410 kts | 227° |
| 2026-05-05 14:03 | 37.04946 | -10.15450 | 37171 ft | 410 kts | 227° |
| 2026-05-05 14:04 | 37.00868 | -10.20426 | 37149 ft | 410 kts | 227° |
| 2026-05-05 14:04 | 36.97462 | -10.24572 | 37150 ft | 411 kts | 227° |
| 2026-05-05 14:05 | 36.93350 | -10.29562 | 37165 ft | 411 kts | 227° |
| 2026-05-05 14:05 | 36.89263 | -10.34512 | 37166 ft | 412 kts | 227° |
| 2026-05-05 14:06 | 36.85152 | -10.39502 | 37166 ft | 412 kts | 227° |
| 2026-05-05 14:06 | 36.81041 | -10.44483 | 37169 ft | 412 kts | 227° |
| 2026-05-05 14:07 | 36.76915 | -10.49465 | 37153 ft | 412 kts | 227° |
| 2026-05-05 14:07 | 36.72792 | -10.54428 | 37155 ft | 412 kts | 227° |
| 2026-05-05 14:08 | 36.68682 | -10.59367 | 37159 ft | 412 kts | 227° |
| 2026-05-05 14:08 | 36.64546 | -10.64341 | 37158 ft | 413 kts | 227° |
| 2026-05-05 14:09 | 36.60401 | -10.69317 | 37163 ft | 414 kts | 227° |
| 2026-05-05 14:09 | 36.56259 | -10.74289 | 37170 ft | 414 kts | 227° |
| 2026-05-05 14:10 | 36.52128 | -10.79233 | 37174 ft | 414 kts | 226° |
| 2026-05-05 14:10 | 36.47974 | -10.84186 | 37161 ft | 414 kts | 226° |
| 2026-05-05 14:11 | 36.43826 | -10.89137 | 37174 ft | 413 kts | 226° |
| 2026-05-05 14:11 | 36.39662 | -10.94086 | 37179 ft | 413 kts | 226° |
| 2026-05-05 14:12 | 36.35501 | -10.99030 | 37181 ft | 414 kts | 226° |
| 2026-05-05 14:12 | 36.31359 | -11.03946 | 37176 ft | 414 kts | 226° |
| 2026-05-05 14:13 | 36.27184 | -11.08896 | 37176 ft | 415 kts | 226° |
| 2026-05-05 14:13 | 36.23000 | -11.13854 | 37175 ft | 415 kts | 226° |
| 2026-05-05 14:14 | 36.18856 | -11.18753 | 37170 ft | 415 kts | 226° |
| 2026-05-05 14:14 | 36.14670 | -11.23679 | 37178 ft | 415 kts | 226° |
| 2026-05-05 14:15 | 36.10486 | -11.28598 | 37180 ft | 415 kts | 226° |
| 2026-05-05 14:15 | 36.06310 | -11.33517 | 37182 ft | 414 kts | 226° |
| 2026-05-05 14:16 | 36.02125 | -11.38435 | 37184 ft | 415 kts | 226° |
| 2026-05-05 14:16 | 35.97956 | -11.43287 | 37183 ft | 415 kts | 223° |
| 2026-05-05 14:17 | 35.93089 | -11.47219 | 37167 ft | 420 kts | 212° |
| 2026-05-05 14:17 | 35.87874 | -11.50504 | 37168 ft | 421 kts | 209° |
| 2026-05-05 14:18 | 35.82599 | -11.53651 | 37170 ft | 421 kts | 209° |
| 2026-05-05 14:18 | 35.77351 | -11.56850 | 37172 ft | 421 kts | 210° |
| 2026-05-05 14:19 | 35.72125 | -11.60102 | 37173 ft | 421 kts | 210° |
| 2026-05-05 14:19 | 35.66939 | -11.63349 | 37157 ft | 421 kts | 210° |
| 2026-05-05 14:20 | 35.61717 | -11.66607 | 37161 ft | 421 kts | 210° |
| 2026-05-05 14:20 | 35.56480 | -11.69856 | 37165 ft | 422 kts | 210° |
| 2026-05-05 14:21 | 35.51236 | -11.73091 | 37168 ft | 422 kts | 210° |
| 2026-05-05 14:21 | 35.45990 | -11.76327 | 37176 ft | 422 kts | 210° |
| 2026-05-05 14:22 | 35.40748 | -11.79563 | 37174 ft | 422 kts | 210° |
| 2026-05-05 14:22 | 35.35505 | -11.82790 | 37174 ft | 422 kts | 210° |
| 2026-05-05 14:23 | 35.30255 | -11.86014 | 37173 ft | 422 kts | 210° |
| 2026-05-05 14:23 | 35.25008 | -11.89241 | 37174 ft | 422 kts | 210° |
| 2026-05-05 14:24 | 35.19764 | -11.92458 | 37175 ft | 422 kts | 210° |
| 2026-05-05 14:24 | 35.14547 | -11.95647 | 37155 ft | 422 kts | 210° |
| 2026-05-05 14:25 | 35.09292 | -11.98859 | 37156 ft | 422 kts | 209° |
| 2026-05-05 14:25 | 35.04034 | -12.02073 | 37159 ft | 422 kts | 210° |
| 2026-05-05 14:26 | 34.98779 | -12.05285 | 37162 ft | 422 kts | 210° |
| 2026-05-05 14:26 | 34.93519 | -12.08484 | 37170 ft | 423 kts | 209° |
| 2026-05-05 14:27 | 34.88246 | -12.11689 | 37143 ft | 423 kts | 209° |
| 2026-05-05 14:27 | 34.82976 | -12.14890 | 37157 ft | 423 kts | 209° |
| 2026-05-05 14:28 | 34.77727 | -12.18071 | 37155 ft | 424 kts | 209° |
| 2026-05-05 14:28 | 34.72448 | -12.21262 | 37157 ft | 424 kts | 209° |
| 2026-05-05 14:29 | 34.67167 | -12.24451 | 37170 ft | 424 kts | 209° |
| 2026-05-05 14:29 | 34.61884 | -12.27638 | 37158 ft | 424 kts | 209° |
| 2026-05-05 14:30 | 34.56590 | -12.30822 | 37157 ft | 424 kts | 209° |
| 2026-05-05 14:30 | 34.51303 | -12.34009 | 37168 ft | 424 kts | 209° |
| 2026-05-05 14:31 | 34.46016 | -12.37197 | 37166 ft | 425 kts | 209° |
| 2026-05-05 14:31 | 34.40717 | -12.40378 | 37166 ft | 425 kts | 209° |
| 2026-05-05 14:32 | 34.35417 | -12.43555 | 37143 ft | 425 kts | 209° |
| 2026-05-05 14:32 | 34.30109 | -12.46729 | 37144 ft | 426 kts | 209° |
| 2026-05-05 14:33 | 34.24793 | -12.49906 | 37154 ft | 426 kts | 209° |
| 2026-05-05 14:33 | 34.19474 | -12.53077 | 37157 ft | 427 kts | 209° |
| 2026-05-05 14:34 | 34.15004 | -12.55731 | 37150 ft | 425 kts | 207° |
| 2026-05-05 14:34 | 34.11819 | -12.57839 | 37111 ft | 421 kts | 210° |
| 2026-05-05 14:35 | 34.06478 | -12.60929 | 37112 ft | 427 kts | 208° |
| 2026-05-05 14:35 | 34.01107 | -12.63996 | 37145 ft | 427 kts | 208° |
| 2026-05-05 14:36 | 33.95769 | -12.67138 | 37147 ft | 427 kts | 209° |
| 2026-05-05 14:36 | 33.90446 | -12.70302 | 37152 ft | 427 kts | 209° |
| 2026-05-05 14:37 | 33.85123 | -12.73477 | 37157 ft | 427 kts | 209° |
| 2026-05-05 14:37 | 33.79789 | -12.76631 | 37145 ft | 427 kts | 209° |
| 2026-05-05 14:38 | 33.74443 | -12.79773 | 37141 ft | 427 kts | 209° |
| 2026-05-05 14:38 | 33.69097 | -12.82912 | 37144 ft | 428 kts | 209° |
| 2026-05-05 14:39 | 33.63750 | -12.86054 | 37145 ft | 428 kts | 209° |
| 2026-05-05 14:39 | 33.58435 | -12.89184 | 37151 ft | 428 kts | 209° |
| 2026-05-05 14:40 | 33.53088 | -12.92326 | 37142 ft | 428 kts | 209° |
| 2026-05-05 14:40 | 33.47737 | -12.95442 | 37159 ft | 427 kts | 209° |
| 2026-05-05 14:41 | 33.42399 | -12.98562 | 37162 ft | 426 kts | 209° |
| 2026-05-05 14:41 | 33.37078 | -13.01681 | 37162 ft | 425 kts | 209° |
| 2026-05-05 14:42 | 33.31761 | -13.04781 | 37161 ft | 425 kts | 209° |
| 2026-05-05 14:42 | 33.26443 | -13.07877 | 37160 ft | 425 kts | 209° |
| 2026-05-05 14:43 | 33.21139 | -13.10961 | 37157 ft | 424 kts | 209° |
| 2026-05-05 14:43 | 33.15834 | -13.14043 | 37156 ft | 423 kts | 209° |
| 2026-05-05 14:44 | 33.10545 | -13.17106 | 37155 ft | 422 kts | 209° |
| 2026-05-05 14:44 | 33.05259 | -13.20168 | 37155 ft | 422 kts | 209° |
| 2026-05-05 14:45 | 32.99972 | -13.23229 | 37159 ft | 422 kts | 209° |
| 2026-05-05 14:45 | 32.94689 | -13.26285 | 37149 ft | 422 kts | 210° |
| 2026-05-05 14:46 | 32.89419 | -13.29327 | 37158 ft | 421 kts | 210° |
| 2026-05-05 14:46 | 32.84182 | -13.32347 | 37158 ft | 420 kts | 210° |
| 2026-05-05 14:47 | 32.78907 | -13.35368 | 37158 ft | 420 kts | 210° |
| 2026-05-05 14:47 | 32.73647 | -13.38390 | 37155 ft | 420 kts | 210° |
| 2026-05-05 14:48 | 32.68392 | -13.41417 | 37153 ft | 419 kts | 210° |
| 2026-05-05 14:48 | 32.63122 | -13.44441 | 37152 ft | 419 kts | 210° |
| 2026-05-05 14:49 | 32.57923 | -13.47412 | 37148 ft | 419 kts | 210° |
| 2026-05-05 14:49 | 32.52639 | -13.50428 | 37141 ft | 419 kts | 210° |
| 2026-05-05 14:50 | 32.48266 | -13.52928 | 37143 ft | 419 kts | 210° |
| 2026-05-05 14:50 | 32.42149 | -13.56425 | 37142 ft | 419 kts | 210° |
| 2026-05-05 14:51 | 32.37743 | -13.58936 | 37138 ft | 418 kts | 210° |
| 2026-05-05 14:51 | 32.32533 | -13.61892 | 37148 ft | 417 kts | 210° |
| 2026-05-05 14:52 | 32.27314 | -13.64859 | 37153 ft | 416 kts | 210° |
| 2026-05-05 14:52 | 32.22104 | -13.67818 | 37150 ft | 415 kts | 210° |
| 2026-05-05 14:53 | 32.16897 | -13.70763 | 37146 ft | 415 kts | 210° |
| 2026-05-05 14:53 | 32.11697 | -13.73701 | 37125 ft | 414 kts | 211° |
| 2026-05-05 14:54 | 32.06512 | -13.76629 | 37136 ft | 412 kts | 211° |
| 2026-05-05 14:54 | 32.01342 | -13.79547 | 37139 ft | 411 kts | 211° |
| 2026-05-05 14:55 | 31.96187 | -13.82462 | 37134 ft | 411 kts | 211° |
| 2026-05-05 14:55 | 31.91038 | -13.85362 | 37132 ft | 410 kts | 211° |
| 2026-05-05 14:56 | 31.85883 | -13.88256 | 37120 ft | 411 kts | 210° |
| 2026-05-05 14:56 | 31.80732 | -13.91152 | 37127 ft | 410 kts | 211° |
| 2026-05-05 14:57 | 31.75626 | -13.94011 | 37136 ft | 408 kts | 211° |
| 2026-05-05 14:57 | 31.70511 | -13.96873 | 37131 ft | 407 kts | 211° |
| 2026-05-05 14:58 | 31.65398 | -13.99737 | 37131 ft | 406 kts | 211° |
| 2026-05-05 14:58 | 31.60294 | -14.02594 | 37129 ft | 406 kts | 211° |
| 2026-05-05 14:59 | 31.55196 | -14.05441 | 37101 ft | 405 kts | 212° |
| 2026-05-05 14:59 | 31.50124 | -14.08266 | 37132 ft | 402 kts | 212° |
| 2026-05-05 15:00 | 31.45936 | -14.10593 | 37133 ft | 400 kts | 212° |
| 2026-05-05 15:00 | 31.40078 | -14.13856 | 37133 ft | 398 kts | 212° |
| 2026-05-05 15:01 | 31.35089 | -14.16629 | 37127 ft | 397 kts | 212° |
| 2026-05-05 15:01 | 31.30093 | -14.19399 | 37124 ft | 397 kts | 212° |
| 2026-05-05 15:02 | 31.25137 | -14.22139 | 37108 ft | 395 kts | 212° |
| 2026-05-05 15:02 | 31.20191 | -14.24888 | 37124 ft | 393 kts | 212° |
| 2026-05-05 15:03 | 31.15268 | -14.27622 | 37122 ft | 391 kts | 212° |
| 2026-05-05 15:03 | 31.10348 | -14.30335 | 37118 ft | 390 kts | 212° |
| 2026-05-05 15:04 | 31.05437 | -14.33035 | 37120 ft | 390 kts | 212° |
| 2026-05-05 15:04 | 31.00540 | -14.35728 | 37118 ft | 389 kts | 212° |
| 2026-05-05 15:05 | 30.93211 | -14.39764 | 37128 ft | 386 kts | 213° |
| 2026-05-05 15:06 | 30.88279 | -14.42173 | 37124 ft | 391 kts | 206° |
| 2026-05-05 15:06 | 30.83102 | -14.44077 | 37115 ft | 389 kts | 206° |
| 2026-05-05 15:07 | 30.77941 | -14.45987 | 37117 ft | 388 kts | 206° |
| 2026-05-05 15:07 | 30.72793 | -14.47889 | 37116 ft | 388 kts | 206° |
| 2026-05-05 15:08 | 30.67645 | -14.49783 | 37093 ft | 387 kts | 207° |
| 2026-05-05 15:08 | 30.62519 | -14.51668 | 37108 ft | 385 kts | 207° |
| 2026-05-05 15:09 | 30.57430 | -14.53536 | 37113 ft | 383 kts | 207° |
| 2026-05-05 15:09 | 30.52380 | -14.55384 | 37114 ft | 382 kts | 207° |
| 2026-05-05 15:10 | 30.47306 | -14.57250 | 37106 ft | 382 kts | 207° |
| 2026-05-05 15:10 | 30.42244 | -14.59107 | 37105 ft | 382 kts | 207° |
| 2026-05-05 15:11 | 30.37191 | -14.60954 | 37097 ft | 380 kts | 207° |
| 2026-05-05 15:11 | 30.32151 | -14.62791 | 37105 ft | 379 kts | 207° |
| 2026-05-05 15:12 | 30.27122 | -14.64627 | 37104 ft | 378 kts | 207° |
| 2026-05-05 15:12 | 30.22103 | -14.66460 | 37100 ft | 378 kts | 207° |
| 2026-05-05 15:13 | 30.17091 | -14.68291 | 37099 ft | 378 kts | 207° |
| 2026-05-05 15:13 | 30.12072 | -14.70114 | 37074 ft | 377 kts | 207° |
| 2026-05-05 15:14 | 30.07093 | -14.71921 | 37078 ft | 377 kts | 208° |
| 2026-05-05 15:14 | 30.02081 | -14.73741 | 37085 ft | 377 kts | 208° |
| 2026-05-05 15:15 | 29.97079 | -14.75564 | 37090 ft | 377 kts | 208° |
| 2026-05-05 15:15 | 29.92071 | -14.77380 | 37093 ft | 377 kts | 208° |